createdAt,value
2023-04-22T00:01:36.260Z,99870.44
2023-04-22T00:04:21.469Z,99855.81
2023-04-22T00:07:05.546Z,99876.41
2023-04-22T00:09:49.482Z,99874.16
2023-04-22T00:12:35.458Z,99869.94
2023-04-22T00:15:21.694Z,99866.38
2023-04-22T00:18:07.352Z,99852.16
2023-04-22T00:20:51.371Z,99871.88
2023-04-22T00:23:35.596Z,99870.84
2023-04-22T00:26:19.783Z,99848.50
2023-04-22T00:29:05.747Z,99811.72
2023-04-22T00:31:49.838Z,99754.66
2023-04-22T00:34:33.864Z,99852.03
2023-04-22T00:37:18.020Z,99824.59
2023-04-22T00:40:02.782Z,99867.59
2023-04-22T00:42:50.646Z,99866.00
2023-04-22T00:45:38.335Z,99870.66
2023-04-22T00:48:22.537Z,99864.50
2023-04-22T00:51:07.094Z,99865.34
2023-04-22T00:53:51.214Z,99872.19
2023-04-22T00:56:37.724Z,99873.78
2023-04-22T00:59:22.724Z,99869.88
2023-04-22T01:02:08.495Z,99870.22
2023-04-22T01:04:54.632Z,99882.91
2023-04-22T01:07:39.013Z,99858.94
2023-04-22T01:10:22.992Z,99874.88
2023-04-22T01:13:08.882Z,99868.06
2023-04-22T01:15:54.931Z,99873.25
2023-04-22T01:18:40.422Z,99873.75
2023-04-22T01:21:25.166Z,99864.53
2023-04-22T01:24:10.727Z,99857.06
2023-04-22T01:26:55.786Z,99827.69
2023-04-22T01:29:40.239Z,99852.09
2023-04-22T01:32:24.485Z,99857.41
2023-04-22T01:35:09.800Z,99843.44
2023-04-22T01:37:53.977Z,99828.22
2023-04-22T01:40:40.177Z,99851.75
2023-04-22T01:43:24.592Z,99855.34
2023-04-22T01:46:09.774Z,99858.03
2023-04-22T01:48:53.947Z,99856.47
2023-04-22T01:51:39.794Z,99866.78
2023-04-22T01:54:23.822Z,99817.44
2023-04-22T01:57:11.716Z,99853.03
2023-04-22T01:59:56.137Z,99851.66
2023-04-22T02:02:40.080Z,99831.53
2023-04-22T02:05:24.431Z,99856.09
2023-04-22T02:08:08.686Z,99808.59
2023-04-22T02:10:53.238Z,99850.91
2023-04-22T02:13:42.703Z,99852.19
2023-04-22T02:16:26.964Z,99844.31
2023-04-22T02:19:11.680Z,99847.34
2023-04-22T02:21:55.835Z,99855.56
2023-04-22T02:24:39.879Z,99848.06
2023-04-22T02:27:24.021Z,99850.09
2023-04-22T02:30:11.263Z,99850.81
2023-04-22T02:32:56.219Z,99856.63
2023-04-22T02:35:40.451Z,99845.69
2023-04-22T02:38:24.215Z,99865.81
2023-04-22T02:41:08.056Z,99857.53
2023-04-22T02:43:54.065Z,99853.09
2023-04-22T02:46:39.647Z,99852.06
2023-04-22T02:49:23.772Z,99851.41
2023-04-22T02:52:07.936Z,99852.72
2023-04-22T02:54:52.419Z,99858.78
2023-04-22T02:57:36.249Z,99849.34
2023-04-22T03:00:22.255Z,99855.41
2023-04-22T03:03:07.815Z,99848.28
2023-04-22T03:05:52.211Z,99861.59
2023-04-22T03:08:35.988Z,99836.16
2023-04-22T03:11:19.996Z,99855.91
2023-04-22T03:14:05.059Z,99841.03
2023-04-22T03:16:49.026Z,99861.41
2023-04-22T03:19:34.350Z,99858.28
2023-04-22T03:22:18.696Z,99866.16
2023-04-22T03:25:03.072Z,99859.75
2023-04-22T03:27:49.432Z,99863.16
2023-04-22T03:30:33.285Z,99867.09
2023-04-22T03:33:17.649Z,99877.06
2023-04-22T03:36:12.658Z,99878.78
2023-04-22T03:38:57.096Z,99875.53
2023-04-22T03:41:43.193Z,99879.38
2023-04-22T03:44:27.430Z,99891.00
2023-04-22T03:47:12.376Z,99886.88
2023-04-22T03:50:02.966Z,99893.19
2023-04-22T03:52:51.797Z,99907.25
2023-04-22T03:55:38.320Z,99908.34
2023-04-22T03:58:22.745Z,99913.84
2023-04-22T04:01:08.233Z,99919.16
2023-04-22T04:03:53.723Z,99917.59
2023-04-22T04:06:39.930Z,99885.16
2023-04-22T04:09:25.249Z,99928.94
2023-04-22T04:12:09.768Z,99930.00
2023-04-22T04:14:59.596Z,99928.41
2023-04-22T04:17:44.771Z,99917.19
2023-04-22T04:20:29.912Z,99922.94
2023-04-22T04:23:13.936Z,99939.81
2023-04-22T04:26:03.016Z,99944.19
2023-04-22T04:28:49.304Z,99946.09
2023-04-22T04:31:35.700Z,99952.72
2023-04-22T04:34:20.621Z,99940.63
2023-04-22T04:37:05.001Z,99958.97
2023-04-22T04:39:59.938Z,99951.69
2023-04-22T04:42:55.786Z,99974.22
2023-04-22T04:45:48.725Z,99968.94
2023-04-22T04:48:36.970Z,99976.25
2023-04-22T04:51:25.421Z,99979.72
2023-04-22T04:54:14.162Z,99985.19
2023-04-22T04:56:59.005Z,99990.00
2023-04-22T04:59:44.616Z,99995.81
2023-04-22T05:02:29.258Z,100004.00
2023-04-22T05:05:14.243Z,100006.09
2023-04-22T05:08:00.801Z,99997.72
2023-04-22T05:10:45.510Z,99988.16
2023-04-22T05:13:30.236Z,99975.56
2023-04-22T05:16:16.034Z,99978.03
2023-04-22T05:18:59.984Z,100008.56
2023-04-22T05:21:44.239Z,100006.03
2023-04-22T05:24:28.453Z,100014.28
2023-04-22T05:27:16.775Z,100019.28
2023-04-22T05:30:01.124Z,99982.78
2023-04-22T05:32:51.619Z,99975.13
2023-04-22T05:35:35.760Z,100010.72
2023-04-22T05:38:20.898Z,99995.75
2023-04-22T05:41:05.510Z,100013.38
2023-04-22T05:43:49.657Z,100006.91
2023-04-22T05:46:36.706Z,100016.22
2023-04-22T05:49:24.199Z,100003.72
2023-04-22T05:52:26.675Z,100020.66
2023-04-22T05:55:19.607Z,100018.88
2023-04-22T05:58:04.692Z,99999.94
2023-04-22T06:01:02.865Z,100023.72
2023-04-22T06:04:06.863Z,100040.91
2023-04-22T06:06:54.114Z,100039.66
2023-04-22T06:09:38.853Z,100044.78
2023-04-22T06:12:25.078Z,100016.00
2023-04-22T06:15:11.754Z,100016.47
2023-04-22T06:17:56.340Z,100015.72
2023-04-22T06:20:40.642Z,100004.19
2023-04-22T06:23:26.202Z,100024.13
2023-04-22T06:26:10.562Z,100043.41
2023-04-22T06:28:54.974Z,100045.00
2023-04-22T06:31:39.022Z,100040.34
2023-04-22T06:34:23.783Z,100048.78
2023-04-22T06:37:09.217Z,100052.09
2023-04-22T06:39:55.041Z,100078.75
2023-04-22T06:43:04.979Z,100047.13
2023-04-22T06:46:18.064Z,100055.09
2023-04-22T06:49:22.175Z,100058.44
2023-04-22T06:52:12.358Z,100066.75
2023-04-22T06:54:57.720Z,100062.53
2023-04-22T06:57:41.654Z,100069.13
2023-04-22T07:00:26.126Z,100069.44
2023-04-22T07:03:10.099Z,100053.63
2023-04-22T07:05:54.309Z,100073.38
2023-04-22T07:08:38.543Z,100077.63
2023-04-22T07:11:23.943Z,100067.00
2023-04-22T07:14:26.879Z,100069.66
2023-04-22T07:17:10.925Z,100076.13
2023-04-22T07:19:54.804Z,100081.22
2023-04-22T07:22:38.702Z,100071.69
2023-04-22T07:25:23.696Z,100078.88
2023-04-22T07:28:09.121Z,99974.34
2023-04-22T07:30:53.151Z,100091.22
2023-04-22T07:33:37.203Z,100069.31
2023-04-22T07:36:21.038Z,100106.41
2023-04-22T07:39:05.143Z,100088.25
2023-04-22T07:41:49.170Z,100103.06
2023-04-22T07:44:34.448Z,100091.44
2023-04-22T07:47:18.605Z,100087.19
2023-04-22T07:50:02.475Z,100106.53
2023-04-22T07:52:48.514Z,100112.72
2023-04-22T07:55:33.342Z,100112.19
2023-04-22T07:58:17.236Z,100106.09
2023-04-22T08:01:02.510Z,100113.53
2023-04-22T08:03:46.496Z,100111.44
2023-04-22T08:06:30.995Z,100110.56
2023-04-22T08:09:14.782Z,100111.22
2023-04-22T08:11:58.746Z,100099.84
2023-04-22T08:14:42.536Z,100099.19
2023-04-22T08:17:28.274Z,100111.69
2023-04-22T08:20:12.513Z,100096.09
2023-04-22T08:23:00.302Z,100105.63
2023-04-22T08:25:44.243Z,100104.13
2023-04-22T08:28:28.254Z,100075.69
2023-04-22T08:31:12.981Z,100102.38
2023-04-22T08:33:58.382Z,100096.41
2023-04-22T08:36:42.278Z,100094.47
2023-04-22T08:39:26.208Z,100098.84
2023-04-22T08:42:10.591Z,100102.38
2023-04-22T08:44:55.061Z,100102.13
2023-04-22T08:47:39.585Z,100116.34
2023-04-22T08:50:25.457Z,100096.91
2023-04-22T08:53:09.439Z,100097.19
2023-04-22T08:55:55.704Z,100093.69
2023-04-22T08:58:40.927Z,100084.22
2023-04-22T09:01:26.739Z,99967.81
2023-04-22T09:04:12.337Z,100048.56
2023-04-22T09:06:58.397Z,100106.31
2023-04-22T09:09:44.952Z,100095.06
2023-04-22T09:12:29.172Z,100083.19
2023-04-22T09:15:14.066Z,100098.63
2023-04-22T09:17:58.701Z,100095.75
2023-04-22T09:20:43.861Z,100096.09
2023-04-22T09:23:29.298Z,100087.16
2023-04-22T09:26:13.625Z,100094.78
2023-04-22T09:29:00.838Z,100092.78
2023-04-22T09:31:49.750Z,100090.00
2023-04-22T09:34:34.458Z,100079.84
2023-04-22T09:37:21.455Z,100067.84
2023-04-22T09:40:08.872Z,100084.56
2023-04-22T09:42:54.794Z,100042.63
2023-04-22T09:45:41.599Z,100081.19
2023-04-22T09:48:25.657Z,100093.50
2023-04-22T09:51:17.122Z,100083.63
2023-04-22T09:54:04.380Z,100090.88
2023-04-22T09:56:51.112Z,100092.84
2023-04-22T09:59:35.327Z,100090.38
2023-04-22T10:02:19.490Z,100085.44
2023-04-22T10:05:03.555Z,100098.38
2023-04-22T10:07:47.963Z,100092.78
2023-04-22T10:10:32.013Z,100086.91
2023-04-22T10:13:17.303Z,100110.34
2023-04-22T10:16:02.421Z,100086.25
2023-04-22T10:18:47.052Z,100070.66
2023-04-22T10:21:33.526Z,100090.28
2023-04-22T10:24:19.130Z,100088.50
2023-04-22T10:27:06.751Z,100089.66
2023-04-22T10:29:52.400Z,100081.66
2023-04-22T10:32:36.404Z,100064.94
2023-04-22T10:35:29.248Z,100068.09
2023-04-22T10:38:13.063Z,100081.91
2023-04-22T10:41:01.362Z,100078.88
2023-04-22T10:43:46.972Z,100080.44
2023-04-22T10:47:03.218Z,100086.50
2023-04-22T10:49:47.124Z,100059.28
2023-04-22T10:52:31.240Z,100081.88
2023-04-22T10:55:15.172Z,100081.94
2023-04-22T10:58:00.898Z,100079.78
2023-04-22T11:00:53.295Z,100078.47
2023-04-22T11:03:39.681Z,100081.34
2023-04-22T11:06:27.278Z,100039.31
2023-04-22T11:09:13.728Z,100067.13
2023-04-22T11:12:38.531Z,100072.06
2023-04-22T11:15:23.449Z,100073.25
2023-04-22T11:18:19.833Z,100065.47
2023-04-22T11:21:08.863Z,100080.97
2023-04-22T11:23:53.926Z,100083.63
2023-04-22T11:26:40.676Z,100035.75
2023-04-22T11:29:25.273Z,100072.31
2023-04-22T11:32:12.346Z,100065.81
2023-04-22T11:34:56.895Z,100074.16
2023-04-22T11:37:46.709Z,100057.38
2023-04-22T11:40:33.769Z,100069.00
2023-04-22T11:43:19.826Z,100065.88
2023-04-22T11:46:05.220Z,100078.06
2023-04-22T11:48:49.316Z,100069.28
2023-04-22T11:51:33.297Z,99964.91
2023-04-22T11:54:18.926Z,100077.38
2023-04-22T11:57:04.910Z,100061.34
2023-04-22T11:59:59.721Z,100067.25
2023-04-22T12:02:45.452Z,100064.69
2023-04-22T12:05:43.535Z,100069.91
2023-04-22T12:08:34.140Z,100061.75
2023-04-22T12:11:19.528Z,100073.44
2023-04-22T12:14:07.315Z,100069.91
2023-04-22T12:16:52.076Z,100068.59
2023-04-22T12:19:36.021Z,100069.28
2023-04-22T12:22:26.410Z,100068.69
2023-04-22T12:25:11.119Z,100070.47
2023-04-22T12:27:56.331Z,100076.50
2023-04-22T12:30:40.201Z,100076.00
2023-04-22T12:33:24.302Z,100067.19
2023-04-22T12:36:08.872Z,100072.44
2023-04-22T12:38:52.777Z,100062.31
2023-04-22T12:41:36.625Z,100057.19
2023-04-22T12:44:24.504Z,100024.72
2023-04-22T12:47:09.996Z,100063.47
2023-04-22T12:49:54.124Z,100074.84
2023-04-22T12:52:38.144Z,100073.91
2023-04-22T12:55:22.340Z,100073.13
2023-04-22T12:58:06.171Z,100064.78
2023-04-22T13:00:51.509Z,100063.25
2023-04-22T13:03:35.831Z,100048.47
2023-04-22T13:06:19.803Z,100072.50
2023-04-22T13:09:03.622Z,100070.19
2023-04-22T13:11:49.337Z,100074.97
2023-04-22T13:14:33.282Z,100069.72
2023-04-22T13:17:18.656Z,100055.34
2023-04-22T13:20:04.042Z,100082.38
2023-04-22T13:22:48.462Z,100065.03
2023-04-22T13:25:32.535Z,100064.41
2023-04-22T13:28:16.822Z,100041.22
2023-04-22T13:31:01.358Z,100063.59
2023-04-22T13:33:47.420Z,100054.03
2023-04-22T13:36:31.990Z,100067.25
2023-04-22T13:39:16.023Z,100065.38
2023-04-22T13:42:00.281Z,100076.78
2023-04-22T13:44:44.189Z,100081.59
2023-04-22T13:47:28.233Z,100069.72
2023-04-22T13:50:13.605Z,100067.88
2023-04-22T13:52:57.545Z,100074.94
2023-04-22T13:55:43.422Z,100069.34
2023-04-22T13:58:27.552Z,100083.28
2023-04-22T14:01:11.633Z,100083.84
2023-04-22T14:03:56.614Z,100077.38
2023-04-22T14:06:42.256Z,100079.75
2023-04-22T14:09:26.665Z,100076.56
2023-04-22T14:12:12.496Z,100073.81
2023-04-22T14:14:56.611Z,100047.84
2023-04-22T14:17:41.239Z,100053.31
2023-04-22T14:20:26.277Z,100072.66
2023-04-22T14:23:11.647Z,100073.97
2023-04-22T14:25:56.508Z,100088.59
2023-04-22T14:28:41.710Z,100087.69
2023-04-22T14:31:26.038Z,100095.22
2023-04-22T14:34:09.986Z,100108.44
2023-04-22T14:36:53.833Z,100105.94
2023-04-22T14:39:39.322Z,100110.28
2023-04-22T14:42:23.216Z,100107.09
2023-04-22T14:45:08.190Z,100106.16
2023-04-22T14:47:52.284Z,100120.09
2023-04-22T14:50:36.317Z,100122.25
2023-04-22T14:53:20.192Z,100114.63
2023-04-22T14:56:05.551Z,100116.69
2023-04-22T14:58:49.438Z,100126.88
2023-04-22T15:01:34.018Z,100121.94
2023-04-22T15:04:19.730Z,100102.16
2023-04-22T15:07:05.598Z,100123.31
2023-04-22T15:09:50.931Z,100132.38
2023-04-22T15:12:36.194Z,100126.72
2023-04-22T15:15:20.305Z,100125.66
2023-04-22T15:18:05.518Z,100126.31
2023-04-22T15:20:49.366Z,100135.38
2023-04-22T15:23:33.160Z,100132.13
2023-04-22T15:26:17.108Z,100126.38
2023-04-22T15:29:03.089Z,100132.44
2023-04-22T15:31:47.352Z,100134.50
2023-04-22T15:34:31.209Z,100128.13
2023-04-22T15:37:16.323Z,100128.78
2023-04-22T15:40:00.488Z,100122.91
2023-04-22T15:42:44.445Z,100129.66
2023-04-22T15:45:29.733Z,100132.56
2023-04-22T15:48:13.609Z,100126.75
2023-04-22T15:50:57.555Z,100106.78
2023-04-22T15:53:41.483Z,100130.53
2023-04-22T15:56:26.165Z,100125.34
2023-04-22T15:59:10.156Z,100128.94
2023-04-22T16:01:55.620Z,100093.03
2023-04-22T16:04:39.697Z,100135.53
2023-04-22T16:07:23.597Z,100130.69
2023-04-22T16:10:09.122Z,100134.16
2023-04-22T16:12:53.202Z,100144.47
2023-04-22T16:15:37.286Z,100099.34
2023-04-22T16:18:22.579Z,100145.91
2023-04-22T16:21:07.811Z,100138.53
2023-04-22T16:23:51.594Z,100147.41
2023-04-22T16:26:35.706Z,100133.31
2023-04-22T16:29:19.564Z,100145.94
2023-04-22T16:32:03.710Z,100151.63
2023-04-22T16:34:49.301Z,100163.75
2023-04-22T16:37:34.078Z,100159.75
2023-04-22T16:40:17.933Z,100160.03
2023-04-22T16:43:05.393Z,100158.03
2023-04-22T16:45:49.762Z,100163.00
2023-04-22T16:48:33.908Z,100141.50
2023-04-22T16:51:19.144Z,100166.50
2023-04-22T16:54:03.022Z,100183.19
2023-04-22T16:56:46.826Z,100181.00
2023-04-22T16:59:30.675Z,100181.59
2023-04-22T17:02:14.700Z,100187.50
2023-04-22T17:04:58.646Z,100187.72
2023-04-22T17:07:43.880Z,100181.34
2023-04-22T17:10:27.805Z,100191.47
2023-04-22T17:13:11.925Z,100204.84
2023-04-22T17:15:55.811Z,100191.88
2023-04-22T17:18:39.805Z,100200.84
2023-04-22T17:21:23.770Z,100215.66
2023-04-22T17:24:09.151Z,100221.03
2023-04-22T17:26:53.043Z,100221.19
2023-04-22T17:29:37.114Z,100218.94
2023-04-22T17:32:20.976Z,100225.09
2023-04-22T17:35:05.142Z,100231.72
2023-04-22T17:37:48.971Z,100218.06
2023-04-22T17:40:34.179Z,100238.50
2023-04-22T17:43:18.161Z,100230.09
2023-04-22T17:46:01.932Z,100240.25
2023-04-22T17:48:46.883Z,100250.91
2023-04-22T17:51:31.546Z,100254.66
2023-04-22T17:54:15.566Z,100261.97
2023-04-22T17:57:01.160Z,100254.66
2023-04-22T17:59:45.155Z,100263.09
2023-04-22T18:02:29.230Z,100265.38
2023-04-22T18:05:13.401Z,100272.03
2023-04-22T18:08:00.902Z,100268.97
2023-04-22T18:10:45.065Z,100251.34
2023-04-22T18:13:30.634Z,100246.44
2023-04-22T18:16:14.853Z,100237.38
2023-04-22T18:18:59.902Z,100266.56
2023-04-22T18:21:56.666Z,100233.38
2023-04-22T18:24:44.068Z,100269.44
2023-04-22T18:27:28.129Z,100238.72
2023-04-22T18:30:14.026Z,100274.31
2023-04-22T18:32:58.520Z,100223.28
2023-04-22T18:35:42.730Z,100238.56
2023-04-22T18:38:27.292Z,100289.09
2023-04-22T18:41:13.638Z,100279.63
2023-04-22T18:43:57.862Z,100249.66
2023-04-22T18:46:43.244Z,100287.69
2023-04-22T18:49:27.209Z,100247.50
2023-04-22T18:52:11.268Z,100249.94
2023-04-22T18:54:55.318Z,100256.59
2023-04-22T18:57:39.350Z,100252.94
2023-04-22T19:00:23.846Z,100255.47
2023-04-22T19:03:09.725Z,100269.69
2023-04-22T19:05:53.904Z,100275.19
2023-04-22T19:08:38.014Z,100242.47
2023-04-22T19:11:22.017Z,100251.88
2023-04-22T19:14:06.017Z,100267.03
2023-04-22T19:16:50.083Z,100281.31
2023-04-22T19:19:35.829Z,100231.72
2023-04-22T19:22:20.080Z,100233.72
2023-04-22T19:25:06.233Z,100226.13
2023-04-22T19:27:50.095Z,100229.31
2023-04-22T19:30:34.183Z,100235.44
2023-04-22T19:33:18.208Z,100228.91
2023-04-22T19:36:03.815Z,100221.63
2023-04-22T19:38:47.894Z,100221.69
2023-04-22T19:41:33.558Z,100261.56
2023-04-22T19:44:17.671Z,100235.22
2023-04-22T19:47:02.092Z,100242.84
2023-04-22T19:49:46.624Z,100253.03
2023-04-22T19:52:34.389Z,100268.31
2023-04-22T19:55:18.921Z,100231.41
2023-04-22T19:58:03.952Z,100267.44
2023-04-22T20:00:49.551Z,100236.19
2023-04-22T20:03:34.356Z,100230.78
2023-04-22T20:06:19.454Z,100273.81
2023-04-22T20:09:06.597Z,100261.31
2023-04-22T20:11:51.412Z,100243.63
2023-04-22T20:14:36.281Z,100244.53
2023-04-22T20:17:20.954Z,100240.00
2023-04-22T20:20:08.374Z,100253.41
2023-04-22T20:22:55.105Z,100243.59
2023-04-22T20:25:44.287Z,100238.03
2023-04-22T20:28:43.665Z,100230.16
2023-04-22T20:31:27.835Z,100283.78
2023-04-22T20:34:11.921Z,100278.34
2023-04-22T20:36:56.078Z,100245.72
2023-04-22T20:39:41.243Z,100282.56
2023-04-22T20:42:26.480Z,100264.69
2023-04-22T20:45:15.119Z,100289.25
2023-04-22T20:47:59.182Z,100287.91
2023-04-22T20:50:44.011Z,100272.09
2023-04-22T20:53:28.396Z,100279.72
2023-04-22T20:56:12.263Z,100288.72
2023-04-22T20:58:57.449Z,100288.41
2023-04-22T21:01:41.545Z,100293.25
2023-04-22T21:04:26.299Z,100300.19
2023-04-22T21:07:14.271Z,100295.31
2023-04-22T21:09:58.702Z,100291.69
2023-04-22T21:12:43.318Z,100289.06
2023-04-22T21:15:29.580Z,100263.81
2023-04-22T21:18:15.027Z,100290.16
2023-04-22T21:20:59.906Z,100278.19
2023-04-22T21:23:44.283Z,100287.53
2023-04-22T21:26:29.177Z,100289.06
2023-04-22T21:29:13.486Z,100257.50
2023-04-22T21:32:08.732Z,100289.22
2023-04-22T21:34:53.790Z,100278.75
2023-04-22T21:37:37.737Z,100296.59
2023-04-22T21:40:21.801Z,100280.47
2023-04-22T21:43:06.184Z,100262.47
2023-04-22T21:45:50.053Z,100273.91
2023-04-22T21:48:35.155Z,100278.47
2023-04-22T21:51:19.050Z,100283.25
2023-04-22T21:54:03.347Z,100287.25
2023-04-22T21:56:47.281Z,100273.00
2023-04-22T21:59:31.579Z,100269.78
2023-04-22T22:02:15.472Z,100281.25
2023-04-22T22:05:01.005Z,100273.94
2023-04-22T22:07:45.498Z,100250.13
2023-04-22T22:10:29.297Z,100271.97
2023-04-22T22:13:13.238Z,100280.44
2023-04-22T22:15:57.620Z,100285.63
2023-04-22T22:18:41.992Z,100284.81
2023-04-22T22:21:27.152Z,100288.97
2023-04-22T22:24:11.009Z,100287.38
2023-04-22T22:26:54.876Z,100281.78
2023-04-22T22:29:40.945Z,100284.66
2023-04-22T22:32:24.931Z,100260.72
2023-04-22T22:35:09.383Z,100278.69
2023-04-22T22:37:54.669Z,100267.78
2023-04-22T22:40:38.353Z,100281.38
2023-04-22T22:43:22.250Z,100276.50
2023-04-22T22:46:06.140Z,100282.34
2023-04-22T22:48:50.339Z,100272.50
2023-04-22T22:51:34.586Z,100271.94
2023-04-22T22:54:19.773Z,100273.84
2023-04-22T22:57:05.509Z,100267.63
2023-04-22T22:59:49.868Z,100240.22
2023-04-22T23:02:34.068Z,100260.63
2023-04-22T23:05:18.450Z,100259.13
2023-04-22T23:08:02.251Z,100255.31
2023-04-22T23:10:47.462Z,100245.13
2023-04-22T23:13:31.295Z,100263.81
2023-04-22T23:16:16.455Z,100249.06
2023-04-22T23:19:01.375Z,100255.91
2023-04-22T23:21:46.115Z,100251.00
2023-04-22T23:24:30.620Z,100254.84
2023-04-22T23:27:17.520Z,100262.97
2023-04-22T23:30:02.199Z,100247.63
2023-04-22T23:32:49.948Z,100236.19
2023-04-22T23:35:35.013Z,100257.03
2023-04-22T23:38:19.592Z,100250.88
2023-04-22T23:41:03.668Z,100246.06
2023-04-22T23:43:48.860Z,100223.69
2023-04-22T23:46:32.740Z,100221.25
2023-04-22T23:49:16.634Z,100240.41
2023-04-22T23:52:00.891Z,100241.97
2023-04-22T23:54:46.060Z,100243.81
2023-04-22T23:57:30.502Z,100100.00
